• Join FlightAware (Why Join?)
  • Login
  • US Flag 
03:03PM EDT


 

Airport Tracker/Info


-or-


 

Live Flight TrackerFlight Track Log ✈ AWE710 ✈ 07-Apr-2013 ✈ KSFO - KPHL

Flight Track Log - Related Links

Times and Time Zones

All times are in EDT time to prevent confusion due to time zone crossing. See the AWE710 flight status page for this flight to view local times or setup timezone preferences in your user account.

Time Position Orientation Groundspeed Altitude Reporting Facility
EDT Latitude Longitude Course Direction KTS MPH feet Rate Location/Type
11:28AM 37.6790 -122.2880 57° Northeast 225 259 2,900  Level FlightAware
11:29AM 37.6940 -122.2590 57° Northeast 233 268 3,700 1,620 Climbing FlightAware
11:29AM 37.7140 -122.2210 56° Northeast 263 303 4,400 1,620 Climbing FlightAware
11:30AM 37.7310 -122.1890 56° Northeast 275 316 5,200 2,220 Climbing FlightAware
11:30AM 37.7420 -122.1670 58° Northeast 279 321 5,900 2,220 Climbing FlightAware
11:30AM 37.7620 -122.1250 59° Northeast 288 331 6,900 2,280 Climbing FlightAware
11:31AM 37.7800 -122.0770 65° Northeast 294 338 8,200 2,400 Climbing FlightAware
11:31AM 37.7900 -122.0400 71° East 295 339 9,100 1,980 Climbing FlightAware
11:32AM 37.8090 -121.9720 71° East 307 353 10,400 1,860 Climbing FlightAware
11:33AM 37.8310 -121.8940 70° East 324 373 11,800 1,380 Climbing FlightAware
11:33AM 37.8520 -121.8180 71° East 357 411 12,400 840 Climbing FlightAware
11:34AM 37.8780 -121.7250 70° East 393 452 13,000 960 Climbing FlightAware
11:35AM 37.9050 -121.6260 71° East 414 476 13,900 1,380 Climbing FlightAware
11:36AM 37.9310 -121.5330 70° East 426 490 15,000 1,680 Climbing FlightAware
11:36AM 37.9600 -121.4250 71° East 433 498 16,300 1,740 Climbing FlightAware
11:37AM 37.9860 -121.3330 70° East 437 503 17,500 1,560 Climbing FlightAware
11:38AM 38.0120 -121.2370 71° East 445 512 18,400 1,380 Climbing FlightAware
11:38AM 38.0450 -121.1150 71° East 454 522 19,500 1,200 Climbing FlightAware
11:39AM 38.0710 -121.0150 72° East 468 539 20,100 1,200 Climbing FlightAware
11:40AM 38.0880 -120.9040 79° East 478 550 21,100 1,260 Climbing FlightAware
11:41AM 38.1050 -120.7820 80° East 485 558 21,900 1,080 Climbing FlightAware
11:41AM 38.1190 -120.6770 80° East 491 565 22,600 1,020 Climbing FlightAware
11:42AM 38.1360 -120.5520 80° East 496 571 23,300 960 Climbing FlightAware
11:43AM 38.1500 -120.4400 81° East 501 577 24,000 960 Climbing FlightAware
11:43AM 38.1690 -120.3000 80° East 505 581 24,800 840 Climbing FlightAware
11:44AM 38.1840 -120.1810 81° East 512 589 25,300 780 Climbing FlightAware
11:45AM 38.1960 -120.0850 81° East 513 590 25,800 960 Climbing FlightAware
11:45AM 38.2180 -119.9170 80° East 516 594 26,700 840 Climbing FlightAware
11:46AM 38.2330 -119.7970 81° East 521 600 27,100 840 Climbing FlightAware
11:47AM 38.2460 -119.6930 81° East 518 596 27,800 480 Climbing FlightAware
11:47AM 38.2610 -119.5730 81° East 518 596 27,800 900 Level FlightAware
11:48AM 38.2800 -119.4230 81° East 518 596 29,200 1,380 Climbing FlightAware
11:49AM 38.2960 -119.2850 82° East 514 592 29,900 540 Climbing FlightAware
11:50AM 38.3150 -119.1350 81° East 514 592 30,100 120 Climbing FlightAware
11:51AM 38.3270 -119.0330 81° East 514 592 30,100  Level FlightAware
11:51AM 38.3400 -118.9310 81° East 514 592 30,100  Level FlightAware
11:52AM 38.3500 -118.8550 80° East 514 592 30,100  Level FlightAware
11:52AM 38.3620 -118.7530 81° East 514 592 30,100  Level FlightAware
11:53AM 38.3750 -118.6510 81° East 514 592 30,100  Level FlightAware
11:54AM 38.3880 -118.5490 81° East 514 592 30,100  Level FlightAware
11:55AM 38.4030 -118.4220 81° East 514 592 30,100  Level FlightAware
11:55AM 38.4160 -118.3200 81° East 514 592 30,100  Level FlightAware
11:56AM 38.4290 -118.2180 81° East 514 592 30,100  Level FlightAware
11:57AM 38.4410 -118.1160 81° East 514 592 30,100  Level FlightAware
11:57AM 38.4540 -118.0140 81° East 514 592 30,100  Level FlightAware
11:58AM 38.4700 -117.8870 81° East 514 592 30,100  Level FlightAware
11:59AM 38.4820 -117.7850 81° East 514 592 30,100 2,340 Level FlightAware
11:59AM 38.5075 -117.4133 81° East 522 601 33,000 2,700 Climbing Salt Lake Center
12:00PM 38.5147 -117.3400 83° East 522 601 33,000  Level Oakland Center
12:00PM 38.5186 -117.2272 87° East 523 602 33,000  Level Salt Lake Center
12:01PM 38.5142 -117.0394 92° East 523 602 33,000  Level Salt Lake Center
12:02PM 38.5133 -116.9653 91° East 522 601 33,000  Level Oakland Center
12:03PM 38.5092 -116.7772 92° East 524 603 33,000  Level Oakland Center
12:04PM 38.5044 -116.5911 92° East 523 602 33,000  Level Oakland Center
12:04PM 38.5014 -116.4781 92° East 525 604 33,000  Level Salt Lake Center
12:05PM 38.4983 -116.3656 92° East 526 605 33,000  Level Oakland Center
12:06PM 38.4928 -116.1792 92° East 526 605 33,000  Level Oakland Center
12:06PM 38.4908 -116.1033 92° East 529 609 33,000  Level Salt Lake Center
12:07PM 38.4861 -115.9169 92° East 527 606 33,000  Level Salt Lake Center
12:09PM 38.4783 -115.6939 92° East 524 603 33,000  Level Salt Lake Center
12:10PM 38.4722 -115.5081 92° East 524 603 33,000  Level Salt Lake Center
12:11PM 38.4650 -115.3122 93° East 521 600 33,000  Level Salt Lake Center
12:12PM 38.4908 -115.1611 78° East 520 598 33,000  Level Salt Lake Center
12:13PM 38.5325 -114.9481 76° East 515 593 33,000  Level Salt Lake Center
12:14PM 38.5683 -114.7692 76° East 518 596 33,000  Level Salt Lake Center
12:15PM 38.6028 -114.5892 76° East 520 598 33,000  Level Salt Lake Center
12:16PM 38.6375 -114.4100 76° East 519 597 33,000  Level Salt Lake Center
12:17PM 38.6722 -114.2294 76° East 521 600 33,000  Level Salt Lake Center
12:18PM 38.7050 -114.0483 77° East 521 600 33,000  Level Salt Lake Center
12:19PM 38.7400 -113.8686 76° East 521 600 33,000  Level Salt Lake Center
12:20PM 38.7789 -113.6511 77° East 521 600 33,000  Level Salt Lake Center
12:21PM 38.8125 -113.4708 76° East 520 598 33,000  Level Salt Lake Center
12:22PM 38.8447 -113.2894 77° East 521 600 33,000  Level Salt Lake Center
12:23PM 38.8781 -113.1075 77° East 522 601 33,000  Level Salt Lake Center
12:24PM 38.9106 -112.9244 77° East 524 603 33,000  Level Salt Lake Center
12:29PM 39.0820 -111.9200 77° East 527 606 33,000  Level FlightAware
12:30PM 39.0990 -111.8190 78° East 527 606 33,000  Level FlightAware
12:31PM 39.1190 -111.6960 78° East 527 606 33,000  Level FlightAware
12:31PM 39.1370 -111.5920 77° East 527 606 33,000  Level FlightAware
12:32PM 39.1540 -111.4870 78° East 527 606 33,000  Level FlightAware
12:33PM 39.1750 -111.3560 78° East 527 606 33,000  Level FlightAware
12:33PM 39.1930 -111.2520 77° East 527 606 33,000  Level FlightAware
12:34PM 39.2100 -111.1470 78° East 527 606 33,000  Level FlightAware
12:35PM 39.2270 -111.0420 78° East 527 606 33,000  Level FlightAware
12:35PM 39.2440 -110.9380 78° East 527 606 33,000  Level FlightAware
12:36PM 39.2660 -110.8070 78° East 527 606 33,000  Level FlightAware
12:37PM 39.2830 -110.7020 78° East 527 606 33,000  Level FlightAware
12:38PM 39.3000 -110.5970 78° East 527 606 33,000  Level FlightAware
12:38PM 39.3440 -110.2790 80° East 527 606 33,000  Level FlightAware
12:39PM 39.3650 -110.1430 79° East 528 608 33,000  Level FlightAware
12:40PM 39.3850 -110.0100 79° East 527 606 33,000  Level FlightAware
12:40PM 39.4060 -109.8720 79° East 525 604 33,000  Level FlightAware
12:41PM 39.4260 -109.7340 79° East 525 604 33,000  Level FlightAware
12:42PM 39.4400 -109.6380 79° East 525 604 33,000  Level FlightAware
12:42PM 39.4590 -109.5100 79° East 524 603 33,000  Level FlightAware
12:43PM 39.4820 -109.3510 79° East 524 603 33,000  Level FlightAware
12:44PM 39.5050 -109.1850 80° East 525 604 33,000  Level FlightAware
12:45PM 39.5250 -109.0430 80° East 528 608 33,000  Level FlightAware
12:46PM 39.5430 -108.9130 80° East 531 611 33,000 60 Level FlightAware
12:46PM 39.5620 -108.7780 80° East 531 611 33,100 60 Climbing FlightAware
12:47PM 39.5730 -108.6980 80° East 530 610 33,100  Level FlightAware
12:48PM 39.5960 -108.5300 80° East 526 605 33,100 -120 Level FlightAware
12:48PM 39.6120 -108.4100 80° East 524 603 33,000 -120 Descending FlightAware
12:49PM 39.6320 -108.2660 80° East 521 600 33,000  Level FlightAware
12:50PM 39.6510 -108.1210 80° East 520 598 33,000  Level FlightAware
12:51PM 39.6670 -108.0010 80° East 518 596 33,000  Level FlightAware
12:51PM 39.6830 -107.8780 80° East 519 597 33,000  Level FlightAware
12:52PM 39.7000 -107.7460 80° East 520 598 33,000  Level FlightAware
12:53PM 39.7180 -107.6070 80° East 521 600 33,000  Level FlightAware
12:53PM 39.7340 -107.4760 81° East 523 602 33,000 60 Level FlightAware
12:54PM 39.7500 -107.3520 80° East 522 601 33,100 60 Climbing FlightAware
12:55PM 39.7660 -107.2280 80° East 519 597 33,100  Level FlightAware
12:55PM 39.7741 -107.1590 81° East 518 596 33,100 -180 Level FlightAware ADS-B
12:56PM 39.7854 -107.0660 81° East 517 595 33,000 -120 Descending FlightAware ADS-B
12:56PM 39.7969 -106.9730 81° East 516 594 33,000  Level FlightAware ADS-B
12:57PM 39.8084 -106.8780 81° East 515 593 33,000  Level FlightAware ADS-B
12:57PM 39.8206 -106.7770 81° East 513 590 33,000  Level FlightAware ADS-B
12:58PM 39.8381 -106.6300 81° East 512 589 33,000  Level FlightAware ADS-B
12:58PM 39.8497 -106.5320 81° East 511 588 33,000  Level FlightAware ADS-B
12:59PM 39.8600 -106.4430 81° East 510 587 33,000  Level FlightAware
12:59PM 39.8662 -106.3920 81° East 510 587 33,000  Level FlightAware ADS-B
01:00PM 39.8770 -106.2990 81° East 509 586 33,000  Level FlightAware ADS-B
01:00PM 39.8884 -106.2000 81° East 507 583 33,000  Level FlightAware ADS-B
01:01PM 39.8990 -106.1070 82° East 504 580 33,000  Level FlightAware ADS-B
01:01PM 39.9120 -105.9920 82° East 503 579 33,000  Level FlightAware ADS-B
01:02PM 39.9226 -105.8990 82° East 501 577 33,000  Level FlightAware ADS-B
01:02PM 39.9326 -105.8090 82° East 500 575 33,000  Level FlightAware ADS-B
01:03PM 39.9434 -105.7110 82° East 500 575 33,000 60 Level FlightAware ADS-B
01:04PM 39.9541 -105.6130 82° East 498 573 33,100  Climbing FlightAware ADS-B
01:04PM 39.9640 -105.5240 82° East 502 578 33,000 -120 Descending FlightAware ADS-B
01:05PM 39.9738 -105.4320 82° East 497 572 33,000  Level FlightAware ADS-B
01:05PM 39.9867 -105.3120 82° East 502 578 33,000  Level FlightAware ADS-B
01:06PM 39.9976 -105.2100 82° East 504 580 33,000  Level FlightAware ADS-B
01:06PM 40.0075 -105.1160 82° East 512 589 33,000  Level FlightAware ADS-B
01:07PM 40.0176 -105.0210 82° East 515 593 33,000  Level FlightAware ADS-B
01:07PM 40.0272 -104.9280 82° East 515 593 33,000  Level FlightAware ADS-B
01:08PM 40.0368 -104.8360 82° East 516 594 33,000  Level FlightAware ADS-B
01:08PM 40.0462 -104.7430 82° East 517 595 33,000  Level FlightAware ADS-B
01:09PM 40.0558 -104.6490 82° East 521 600 33,000  Level FlightAware ADS-B
01:09PM 40.0653 -104.5550 82° East 520 598 33,000 60 Level FlightAware ADS-B
01:10PM 40.0746 -104.4610 83° East 520 598 33,100 60 Climbing FlightAware ADS-B
01:10PM 40.0840 -104.3670 83° East 518 596 33,100 -120 Level FlightAware ADS-B
01:11PM 40.0937 -104.2680 83° East 517 595 33,000 -120 Descending FlightAware ADS-B
01:11PM 40.1033 -104.1700 83° East 517 595 33,000  Level FlightAware ADS-B
01:12PM 40.1125 -104.0740 83° East 516 594 33,000  Level FlightAware ADS-B
01:12PM 40.1214 -103.9810 83° East 516 594 33,000  Level FlightAware ADS-B
01:13PM 40.1304 -103.8870 83° East 515 593 33,000  Level FlightAware ADS-B
01:13PM 40.1391 -103.7940 83° East 514 592 33,000  Level FlightAware ADS-B
01:14PM 40.1482 -103.6970 83° East 513 590 33,000  Level FlightAware ADS-B
01:14PM 40.1569 -103.6030 83° East 514 592 33,000  Level FlightAware ADS-B
01:15PM 40.1660 -103.5030 83° East 513 590 33,000  Level FlightAware ADS-B
01:16PM 40.1744 -103.4100 83° East 511 588 33,000  Level FlightAware ADS-B
01:16PM 40.1827 -103.3170 83° East 510 587 33,000  Level FlightAware ADS-B
01:17PM 40.1910 -103.2240 83° East 508 585 33,000  Level FlightAware ADS-B
01:17PM 40.1994 -103.1280 83° East 509 586 33,000 180 Level FlightAware ADS-B
01:18PM 40.2101 -103.0320 82° East 509 586 33,200 360 Climbing FlightAware ADS-B
01:18PM 40.2208 -102.9400 81° East 511 588 33,400 480 Climbing FlightAware ADS-B
01:19PM 40.2315 -102.8480 81° East 513 590 33,700 480 Climbing FlightAware ADS-B
01:19PM 40.2422 -102.7550 81° East 515 593 33,900 540 Climbing FlightAware ADS-B
01:20PM 40.2534 -102.6570 81° East 513 590 34,300 660 Climbing FlightAware ADS-B
01:20PM 40.2642 -102.5620 81° East 513 590 34,600 480 Climbing FlightAware ADS-B
01:21PM 40.2749 -102.4670 82° East 513 590 34,800 360 Climbing FlightAware ADS-B
01:21PM 40.2852 -102.3750 82° East 515 593 35,000 180 Climbing FlightAware ADS-B
01:22PM 40.2960 -102.2770 82° East 515 593 35,000  Level FlightAware ADS-B
01:22PM 40.3062 -102.1840 82° East 516 594 35,000  Level FlightAware ADS-B
01:23PM 40.3166 -102.0900 82° East 515 593 35,000  Level FlightAware ADS-B
01:23PM 40.3266 -101.9980 82° East 517 595 35,000  Level FlightAware ADS-B
01:24PM 40.3369 -101.9030 82° East 518 596 35,000  Level FlightAware ADS-B
01:24PM 40.3471 -101.8060 82° East 518 596 35,000  Level FlightAware ADS-B
01:25PM 40.3570 -101.7120 82° East 518 596 35,000  Level FlightAware ADS-B
01:25PM 40.3669 -101.6180 82° East 518 596 35,000 60 Level FlightAware ADS-B
01:26PM 40.3768 -101.5230 82° East 518 596 35,100 60 Climbing FlightAware ADS-B
01:26PM 40.3866 -101.4280 82° East 516 594 35,100  Level FlightAware ADS-B
01:27PM 40.3962 -101.3350 82° East 515 593 35,100 -120 Level FlightAware ADS-B
01:27PM 40.4059 -101.2400 82° East 513 590 35,000 -120 Descending FlightAware ADS-B
01:28PM 40.4154 -101.1460 82° East 509 586 35,000  Level FlightAware ADS-B
01:29PM 40.4314 -100.9775 82° East 509 586 35,000  Level Denver Center
01:30PM 40.4486 -100.8033 83° East 507 583 35,000  Level Denver Center
01:31PM 40.4683 -100.6006 83° East 507 583 35,000  Level Denver Center
01:32PM 40.4850 -100.4247 83° East 510 587 35,000  Level Denver Center
01:33PM 40.5044 -100.2181 83° East 513 590 35,100  Climbing Denver Center
01:34PM 40.5206 -100.0378 83° East 518 596 35,100 -60 Level Denver Center
01:35PM 40.5392 -99.8292 83° East 517 595 35,000 -60 Descending Denver Center
01:36PM 40.5564 -99.6419 83° East 518 596 35,000  Level Denver Center
01:37PM 40.5725 -99.4503 84° East 525 604 35,000  Level Denver Center
01:38PM 40.5894 -99.2586 83° East 529 609 35,000  Level Denver Center
01:39PM 40.6111 -98.9925 84° East 527 606 35,000  Level Denver Center
01:40PM 40.6136 -98.9561 85° East 526 605 35,000  Level Minneapolis Center
01:41PM 40.6289 -98.7675 84° East 525 604 35,000  Level Minneapolis Center
01:42PM 40.6444 -98.5786 84° East 524 603 35,000  Level Minneapolis Center
01:43PM 40.6581 -98.3900 85° East 523 602 35,000  Level Minneapolis Center
01:44PM 40.6728 -98.1997 84° East 524 603 35,000  Level Minneapolis Center
01:45PM 40.6911 -97.9353 85° East 521 600 35,000  Level Minneapolis Center
01:46PM 40.7047 -97.7467 85° East 519 597 35,000  Level Minneapolis Center
01:47PM 40.7183 -97.5586 84° East 518 596 35,000  Level Minneapolis Center
01:48PM 40.7314 -97.3689 85° East 521 600 35,000  Level Minneapolis Center
01:49PM 40.7458 -97.1567 85° East 521 600 35,000  Level Minneapolis Center
01:50PM 40.7592 -96.9283 86° East 521 600 35,000  Level Minneapolis Center
01:51PM 40.7719 -96.7397 85° East 520 598 35,000  Level Minneapolis Center
01:52PM 40.7833 -96.5492 85° East 523 602 35,000  Level Minneapolis Center
01:53PM 40.7939 -96.3592 86° East 523 602 35,000  Level Minneapolis Center
01:54PM 40.8056 -96.1692 85° East 525 604 35,000  Level Minneapolis Center
02:00PM 40.8600 -95.1350 85° East 523 602 35,000  Level FlightAware
02:01PM 40.8680 -94.9650 86° East 523 602 35,000  Level FlightAware
02:02PM 40.8740 -94.8570 86° East 523 602 35,000  Level FlightAware
02:02PM 40.8830 -94.6300 87° East 522 601 35,000  Level FlightAware
02:03PM 40.8890 -94.5030 86° East 522 601 35,000  Level FlightAware
02:04PM 40.8960 -94.3680 86° East 522 601 35,000  Level FlightAware
02:04PM 40.8990 -94.2390 88° East 520 598 35,000  Level FlightAware
02:05PM 40.9050 -94.0710 87° East 520 598 35,000  Level FlightAware
02:06PM 40.9100 -93.9400 87° East 520 598 35,000  Level FlightAware
02:07PM 40.9150 -93.8320 86° East 520 598 35,000  Level FlightAware
02:07PM 40.9190 -93.7240 87° East 520 598 35,000  Level FlightAware
02:08PM 40.9230 -93.6150 87° East 520 598 35,000  Level FlightAware
02:09PM 40.9270 -93.5070 87° East 520 598 35,000  Level FlightAware
02:09PM 40.9330 -93.2610 88° East 525 604 35,000  Level FlightAware
02:10PM 40.9370 -93.1490 87° East 525 604 35,000  Level FlightAware
02:11PM 40.9410 -92.9950 88° East 525 604 35,000  Level FlightAware
02:12PM 40.9450 -92.8680 88° East 526 605 35,000  Level FlightAware
02:12PM 40.9480 -92.7580 88° East 526 605 35,000  Level FlightAware
02:13PM 40.9520 -92.6100 88° East 526 605 35,000  Level FlightAware
02:13PM 40.9550 -92.4910 88° East 526 605 35,000  Level FlightAware
02:14PM 40.9590 -92.3250 88° East 525 604 35,000  Level FlightAware
02:15PM 40.9620 -92.1730 88° East 523 602 35,000  Level FlightAware
02:16PM 40.9660 -92.0070 88° East 523 602 35,000  Level FlightAware
02:17PM 40.9690 -91.8400 89° East 522 601 35,000  Level FlightAware
02:17PM 40.9710 -91.7210 89° East 521 600 35,000  Level FlightAware
02:18PM 40.9740 -91.5790 88° East 521 600 35,000  Level FlightAware
02:19PM 40.9760 -91.4050 89° East 520 598 35,000  Level FlightAware
02:20PM 40.9790 -91.2280 89° East 519 597 35,000  Level FlightAware
02:21PM 40.9800 -91.1250 89° East 519 597 35,000  Level FlightAware
02:21PM 40.9820 -90.9630 89° East 520 598 35,000  Level FlightAware
02:22PM 40.9840 -90.8380 89° East 519 597 35,000  Level FlightAware
02:23PM 40.9850 -90.6950 89° East 518 596 35,000  Level FlightAware
02:24PM 40.9860 -90.5620 89° East 518 596 35,000  Level FlightAware
02:24PM 40.9870 -90.4370 89° East 517 595 35,000  Level FlightAware
02:25PM 40.9880 -90.2990 89° East 518 596 35,000  Level FlightAware
02:26PM 40.9890 -90.1720 89° East 520 598 35,000  Level FlightAware
02:26PM 40.9890 -90.0230 90° East 523 602 35,000  Level FlightAware
02:27PM 40.9900 -89.8960 89° East 524 603 35,000 60 Level FlightAware
02:28PM 40.9900 -89.7670 90° East 523 602 35,100  Climbing FlightAware
02:28PM 40.9900 -89.6250 90° East 523 602 35,000 -120 Descending FlightAware
02:29PM 40.9900 -89.5670 90° East 523 602 35,000  Level FlightAware
02:30PM 40.9900 -89.4040 90° East 525 604 35,000  Level FlightAware
02:30PM 40.9890 -89.2770 91° East 526 605 35,000  Level FlightAware
02:31PM 40.9890 -89.1280 90° East 526 605 35,000  Level FlightAware
02:32PM 40.9880 -89.0010 91° East 526 605 35,000  Level FlightAware
02:32PM 40.9870 -88.8740 91° East 526 605 35,000  Level FlightAware
02:33PM 40.9860 -88.7340 90° East 524 603 35,000  Level FlightAware
02:34PM 40.9850 -88.6070 91° East 521 600 35,000  Level FlightAware
02:35PM 40.9840 -88.4600 90° East 523 602 35,000  Level FlightAware
02:35PM 40.9820 -88.3320 91° East 523 602 35,000  Level FlightAware
02:36PM 40.9810 -88.2030 91° East 525 604 35,000  Level FlightAware
02:37PM 40.9790 -88.0710 91° East 526 605 35,000  Level FlightAware
02:37PM 40.9770 -87.9340 91° East 525 604 35,000  Level FlightAware
02:38PM 40.9750 -87.7850 91° East 526 605 35,000  Level FlightAware
02:39PM 40.9730 -87.6550 91° East 526 605 35,000  Level FlightAware
02:39PM 40.9700 -87.5240 92° East 526 605 35,000  Level FlightAware
02:40PM 40.9680 -87.3830 91° East 526 605 35,000  Level FlightAware
02:41PM 40.9650 -87.2590 92° East 527 606 35,000  Level FlightAware
02:42PM 40.9620 -87.1080 91° East 527 606 35,000  Level FlightAware
02:42PM 40.9590 -86.9880 92° East 528 608 35,000  Level FlightAware
02:43PM 40.9560 -86.8520 92° East 528 608 35,000  Level FlightAware
02:44PM 40.9530 -86.7070 92° East 529 609 35,000  Level FlightAware
02:44PM 40.9490 -86.5760 92° East 531 611 35,000  Level FlightAware
02:45PM 40.9460 -86.4780 92° East 531 611 35,000  Level FlightAware
02:46PM 40.9430 -86.3380 92° East 531 611 35,000  Level FlightAware
02:46PM 40.9390 -86.2090 92° East 528 608 35,000  Level FlightAware
02:47PM 40.9350 -86.0730 92° East 525 604 35,000  Level FlightAware
02:48PM 40.9300 -85.9330 93° East 522 601 35,000  Level FlightAware
02:48PM 40.9270 -85.8200 92° East 522 601 35,000  Level FlightAware
02:49PM 40.9220 -85.6790 93° East 521 600 35,000  Level FlightAware
02:49PM 40.9190 -85.5820 92° East 520 598 35,000  Level FlightAware
02:50PM 40.9150 -85.4550 92° East 520 598 35,000  Level FlightAware
02:51PM 40.9090 -85.3100 93° East 520 598 35,000  Level FlightAware
02:52PM 40.9050 -85.1960 93° East 520 598 35,000  Level FlightAware
02:52PM 40.9000 -85.0870 93° East 521 600 35,000  Level FlightAware
02:53PM 40.8910 -84.8690 93° East 521 600 35,000  Level FlightAware
02:54PM 40.8860 -84.7420 93° East 520 598 35,000  Level FlightAware
02:55PM 40.8800 -84.5970 93° East 521 600 35,000  Level FlightAware
02:55PM 40.8740 -84.4690 94° East 522 601 35,000  Level FlightAware
02:56PM 40.8680 -84.3300 93° East 523 602 35,000  Level FlightAware
02:57PM 40.8620 -84.2000 93° East 524 603 35,000  Level FlightAware
02:57PM 40.8550 -84.0690 94° East 525 604 35,000  Level FlightAware
02:58PM 40.8490 -83.9300 93° East 526 605 35,000  Level FlightAware
02:59PM 40.8400 -83.8000 95° East 526 605 35,000  Level FlightAware
02:59PM 40.8290 -83.6700 96° East 527 606 35,000  Level FlightAware
03:00PM 40.8170 -83.5260 96° East 528 608 35,000  Level FlightAware
03:01PM 40.8060 -83.3960 96° East 529 609 35,000  Level FlightAware
03:02PM 40.7930 -83.2560 97° East 528 608 35,000  Level FlightAware
03:02PM 40.7820 -83.1280 96° East 528 608 35,000  Level FlightAware
03:03PM 40.7690 -82.9820 97° East 528 608 35,000  Level FlightAware
03:04PM 40.7580 -82.8580 97° East 527 606 35,000  Level FlightAware
03:04PM 40.7450 -82.7250 97° East 526 605 35,000  Level FlightAware
03:05PM 40.7320 -82.5850 97° East 527 606 35,000  Level FlightAware
03:06PM 40.7250 -82.5080 97° East 528 608 35,000  Level FlightAware
03:06PM 40.7110 -82.3640 97° East 528 608 35,000  Level FlightAware
03:07PM 40.6990 -82.2400 97° East 528 608 35,000  Level FlightAware
03:08PM 40.6860 -82.1080 97° East 529 609 35,000  Level FlightAware
03:08PM 40.6720 -81.9620 97° East 527 606 35,000  Level FlightAware
03:09PM 40.6600 -81.8390 97° East 525 604 35,000  Level FlightAware
03:10PM 40.6470 -81.7120 98° East 524 603 35,000  Level FlightAware
03:10PM 40.6320 -81.5670 98° East 524 603 35,000  Level FlightAware
03:11PM 40.6190 -81.4420 98° East 523 602 35,000  Level FlightAware
03:12PM 40.6040 -81.2970 98° East 523 602 35,000  Level FlightAware
03:12PM 40.5920 -81.1890 98° East 523 602 35,000  Level FlightAware
03:13PM 40.5790 -81.0640 98° East 525 604 35,000  Level FlightAware
03:14PM 40.5690 -80.9700 98° East 525 604 35,000  Level FlightAware
03:14PM 40.5550 -80.8430 98° East 526 605 35,000  Level FlightAware
03:15PM 40.5410 -80.7150 98° East 526 605 35,000  Level FlightAware
03:16PM 40.5250 -80.5720 98° East 528 608 35,000  Level FlightAware
03:16PM 40.5090 -80.4330 99° East 528 608 35,000  Level FlightAware
03:17PM 40.4950 -80.3030 98° East 529 609 35,000  Level FlightAware
03:18PM 40.4800 -80.1760 99° East 530 610 35,000  Level FlightAware
03:19PM 40.4630 -80.0340 99° East 532 612 35,000  Level FlightAware
03:19PM 40.4500 -79.9200 98° East 532 612 35,000  Level FlightAware
03:20PM 40.4350 -79.7960 99° East 532 612 35,000  Level FlightAware
03:20PM 40.4200 -79.6650 99° East 532 612 35,000  Level FlightAware
03:21PM 40.4030 -79.5270 99° East 532 612 35,000  Level FlightAware
03:22PM 40.3850 -79.3820 99° East 35,000  Level FlightAware
03:23PM 40.3570 -79.1550 99° East 534 615 35,000  Level FlightAware
03:24PM 40.3380 -79.0040 99° East 537 618 35,000  Level FlightAware
03:25PM 40.3210 -78.8610 99° East 539 620 35,000  Level FlightAware
03:25PM 40.3170 -78.7350 92° East 543 625 35,000  Level FlightAware
03:26PM 40.3160 -78.6490 91° East 542 624 35,000  Level FlightAware
03:27PM 40.3160 -78.5100 90° East 541 623 35,000 -540 Level FlightAware
03:27PM 40.3150 -78.3800 91° East 535 616 34,300 -1,440 Descending FlightAware
03:28PM 40.3150 -78.2540 90° East 535 616 33,100 -2,400 Descending FlightAware
03:29PM 40.3140 -78.0750 90° East 533 613 30,500 -1,980 Descending FlightAware
03:30PM 40.3140 -78.1250 270° West 533 613 29,500 -1,380 Descending FlightAware
03:30PM 40.3110 -77.7770 91° East 476 548 28,400 -1,620 Descending FlightAware
03:31PM 40.3100 -77.6850 91° East 472 543 27,500 -1,980 Descending FlightAware
03:32PM 40.3090 -77.5270 90° East 460 529 25,500 -1,860 Descending FlightAware
03:33PM 40.3070 -77.4170 91° East 447 514 24,600 -1,560 Descending FlightAware
03:33PM 40.3060 -77.3180 91° East 435 501 23,600 -1,800 Descending FlightAware
03:34PM 40.3040 -77.1820 91° East 425 489 22,100 -1,740 Descending FlightAware
03:34PM 40.3030 -77.1070 91° East 419 482 21,300 -1,740 Descending FlightAware
03:35PM 40.2830 -76.9850 102° East 405 466 19,800 -1,680 Descending FlightAware
03:36PM 40.2660 -76.9100 107° East 398 458 18,800 -1,380 Descending FlightAware
03:37PM 40.2410 -76.8060 107° East 398 458 18,000 -600 Descending FlightAware
03:37PM 40.2170 -76.7020 107° East 398 458 18,000  Level FlightAware
03:38PM 40.2015 -76.6352 107° East 399 459 18,000 -780 Level FlightAware ADS-B
03:38PM 40.1850 -76.5651 107° East 393 452 17,300 -1,680 Descending FlightAware ADS-B
03:39PM 40.1683 -76.4942 107° East 393 452 16,300 -1,800 Descending FlightAware ADS-B
03:39PM 40.1524 -76.4270 107° East 386 444 15,500 -1,620 Descending FlightAware ADS-B
03:40PM 40.1359 -76.3577 107° East 383 441 14,700 -1,140 Descending FlightAware ADS-B
03:40PM 40.1245 -76.3090 107° East 368 423 14,500 -600 Descending FlightAware ADS-B
03:40PM 40.1208 -76.2886 103° East 364 419 14,400 -900 Descending FlightAware ADS-B
03:41PM 40.1157 -76.2232 96° East 352 405 13,900 -1,200 Descending FlightAware ADS-B
03:41PM 40.1112 -76.1597 95° East 348 400 13,200 -1,680 Descending FlightAware ADS-B
03:42PM 40.1065 -76.0930 95° East 353 406 12,200 -1,680 Descending FlightAware ADS-B
03:42PM 40.1017 -76.0237 95° East 345 397 11,400 -1,380 Descending FlightAware ADS-B
03:43PM 40.0968 -75.9544 95° East 338 389 10,700 -1,380 Descending FlightAware ADS-B
03:43PM 40.0928 -75.8961 95° East 327 376 10,000 -1,620 Descending FlightAware ADS-B
03:44PM 40.0907 -75.8665 95° East 325 374 9,500 -1,980 Descending FlightAware ADS-B
03:44PM 40.0886 -75.8368 95° East 323 372 9,000 -1,980 Descending FlightAware ADS-B
03:44PM 40.0862 -75.8048 96° East 319 367 8,500 -1,740 Descending FlightAware ADS-B
03:45PM 40.0840 -75.7750 96° East 315 362 8,100 -1,080 Descending FlightAware ADS-B
03:45PM 40.0814 -75.7400 96° East 311 358 7,900 -480 Descending FlightAware ADS-B
03:45PM 40.0805 -75.7238 94° East 314 361 7,900  Level FlightAware ADS-B
03:45PM 40.0791 -75.6942 94° East 316 364 7,900 -420 Level FlightAware ADS-B
03:46PM 40.0779 -75.6636 93° East 314 361 7,700 -1,020 Descending FlightAware ADS-B
03:46PM 40.0767 -75.6350 93° East 313 360 7,400 -1,320 Descending FlightAware ADS-B
03:46PM 40.0753 -75.6031 93° East 310 357 7,000 -1,320 Descending FlightAware ADS-B
03:46PM 40.0739 -75.5741 94° East 305 351 6,700 -1,200 Descending FlightAware ADS-B
03:47PM 40.0723 -75.5398 93° East 299 344 6,300 -1,260 Descending FlightAware ADS-B
03:47PM 40.0709 -75.5124 94° East 296 341 6,000 -780 Descending FlightAware ADS-B
03:47PM 40.0695 -75.4830 94° East 299 344 5,900 -240 Descending FlightAware ADS-B
03:47PM 40.0681 -75.4552 94° East 301 346 5,900  Level FlightAware ADS-B
03:48PM 40.0667 -75.4262 94° East 298 343 5,900  Level FlightAware ADS-B
03:48PM 40.0650 -75.3943 94° East 295 339 5,900  Level FlightAware ADS-B
03:48PM 40.0618 -75.3660 98° East 298 343 5,900  Level FlightAware ADS-B
03:49PM 40.0580 -75.3396 101° East 296 341 5,900  Level FlightAware ADS-B
03:49PM 40.0539 -75.3116 101° East 297 342 5,900  Level FlightAware ADS-B
03:49PM 40.0501 -75.2855 101° East 283 326 5,900  Level FlightAware ADS-B
03:49PM 40.0466 -75.2609 101° East 266 306 5,900  Level FlightAware ADS-B
03:50PM 40.0434 -75.2380 100° East 251 289 5,900  Level FlightAware ADS-B
03:50PM 40.0403 -75.2156 100° East 231 266 5,900  Level FlightAware ADS-B
03:50PM 40.0375 -75.1948 100° East 223 257 5,900  Level FlightAware ADS-B
03:50PM 40.0348 -75.1740 100° East 219 252 5,900  Level FlightAware ADS-B
03:51PM 40.0320 -75.1534 100° East 219 252 5,900  Level FlightAware ADS-B
03:51PM 40.0292 -75.1315 99° East 217 250 5,900  Level FlightAware ADS-B
03:51PM 40.0273 -75.1166 99° East 219 252 5,900  Level FlightAware ADS-B
03:51PM 40.0261 -75.1094 102° East 219 252 5,900 -720 Level FlightAware ADS-B
03:51PM 40.0225 -75.0942 107° East 216 249 5,700 -1,080 Descending FlightAware ADS-B
03:52PM 40.0174 -75.0740 108° East 214 246 5,400 -1,080 Descending FlightAware ADS-B
03:52PM 40.0116 -75.0524 109° East 212 244 5,100 -1,200 Descending FlightAware ADS-B
03:52PM 40.0060 -75.0328 110° East 209 241 4,700 -1,440 Descending FlightAware ADS-B
03:52PM 40.0013 -75.0251 129° Southeast 205 236 4,500 -1,200 Descending FlightAware ADS-B
03:52PM 39.9965 -75.0196 139° Southeast 198 228 4,400 -600 Descending FlightAware ADS-B
03:53PM 39.9859 -75.0082 141° Southeast 192 221 4,300 -960 Descending FlightAware ADS-B
03:53PM 39.9791 -75.0006 139° Southeast 186 214 4,000 -1,140 Descending FlightAware ADS-B
03:53PM 39.9711 -74.9923 142° Southeast 180 207 3,900 -720 Descending FlightAware ADS-B
03:53PM 39.9678 -74.9903 155° Southeast 175 201 3,800 -1,380 Descending FlightAware ADS-B
03:53PM 39.9643 -74.9892 166° South 170 196 3,700 -900 Descending FlightAware ADS-B
03:53PM 39.9619 -74.9889 175° South 166 191 3,700 -720 Level FlightAware ADS-B
03:53PM 39.9575 -74.9890 181° South 162 186 3,600 -1,140 Descending FlightAware ADS-B
03:53PM 39.9541 -74.9896 188° South 158 182 3,500 -1,200 Descending FlightAware ADS-B
03:54PM 39.9501 -74.9908 193° South 157 181 3,400 -1,440 Descending FlightAware ADS-B
03:54PM 39.9424 -74.9957 206° Southwest 154 177 3,100 -1,620 Descending FlightAware ADS-B
03:54PM 39.9366 -75.0021 220° Southwest 156 180 2,800 -1,380 Descending FlightAware ADS-B
03:54PM 39.9279 -75.0124 222° Southwest 159 183 2,500 -1,080 Descending FlightAware ADS-B
03:54PM 39.9241 -75.0169 222° Southwest 156 180 2,400 -1,200 Descending FlightAware ADS-B
03:54PM 39.9202 -75.0232 231° Southwest 157 181 2,200 -1,020 Descending FlightAware ADS-B
03:55PM 39.9120 -75.0409 239° Southwest 159 183 1,900 -720 Descending FlightAware ADS-B
03:55PM 39.9108 -75.0455 251° West 156 180 1,900  Level FlightAware ADS-B
03:55PM 39.9084 -75.0564 254° West 162 186 1,900  Level FlightAware ADS-B
03:55PM 39.9061 -75.0669 254° West 165 190 1,900  Level FlightAware ADS-B
03:56PM 39.9032 -75.0818 256° West 165 190 1,900  Level FlightAware ADS-B
03:56PM 39.9002 -75.0970 256° West 164 189 1,900 -420 Level FlightAware ADS-B
03:56PM 39.8974 -75.1113 256° West 151 174 1,700 -840 Descending FlightAware ADS-B
03:56PM 39.8952 -75.1224 256° West 139 160 1,500 -780 Descending FlightAware ADS-B
03:57PM 39.8924 -75.1365 255° West 136 157 1,300 -720 Descending FlightAware ADS-B
03:57PM 39.8898 -75.1494 255° West 138 159 1,100 -780 Descending FlightAware ADS-B
03:57PM 39.8871 -75.1629 255° West 139 160 900 -840 Descending FlightAware ADS-B
03:57PM 39.8859 -75.1689 255° West 145 167 800 -840 Descending FlightAware ADS-B
03:57PM 39.8834 -75.1819 256° West 140 161 600 -780 Descending FlightAware ADS-B
03:58PM 39.8810 -75.1938 255° West 135 155 400 -840 Descending FlightAware ADS-B